sensor_id;sensor_type;location;lat;lon;timestamp;P1;durP1;ratioP1;P2;durP2;ratioP2
19396;SDS011;9834;48.076;11.878;2022-10-15T00:02:16;1.17;;;0.93;;
19396;SDS011;9834;48.076;11.878;2022-10-15T00:04:43;2.13;;;0.90;;
19396;SDS011;9834;48.076;11.878;2022-10-15T00:07:12;1.03;;;0.80;;
19396;SDS011;9834;48.076;11.878;2022-10-15T00:09:40;1.03;;;0.83;;
19396;SDS011;9834;48.076;11.878;2022-10-15T00:12:07;0.97;;;0.97;;
19396;SDS011;9834;48.076;11.878;2022-10-15T00:14:34;1.00;;;1.00;;
19396;SDS011;9834;48.076;11.878;2022-10-15T00:17:01;4.50;;;1.00;;
19396;SDS011;9834;48.076;11.878;2022-10-15T00:19:28;0.70;;;0.70;;
19396;SDS011;9834;48.076;11.878;2022-10-15T00:21:55;1.13;;;0.77;;
19396;SDS011;9834;48.076;11.878;2022-10-15T00:24:22;0.90;;;0.90;;
19396;SDS011;9834;48.076;11.878;2022-10-15T00:26:51;0.83;;;0.77;;
19396;SDS011;9834;48.076;11.878;2022-10-15T00:29:18;0.80;;;0.80;;
19396;SDS011;9834;48.076;11.878;2022-10-15T00:31:45;0.60;;;0.60;;
19396;SDS011;9834;48.076;11.878;2022-10-15T00:34:11;1.00;;;1.00;;
19396;SDS011;9834;48.076;11.878;2022-10-15T00:36:38;6.30;;;1.10;;
19396;SDS011;9834;48.076;11.878;2022-10-15T00:39:05;0.50;;;0.50;;
19396;SDS011;9834;48.076;11.878;2022-10-15T00:41:33;0.90;;;0.83;;
19396;SDS011;9834;48.076;11.878;2022-10-15T00:47:05;0.67;;;0.67;;
19396;SDS011;9834;48.076;11.878;2022-10-15T00:49:38;1.03;;;1.00;;
19396;SDS011;9834;48.076;11.878;2022-10-15T00:52:09;0.63;;;0.63;;
19396;SDS011;9834;48.076;11.878;2022-10-15T00:54:41;1.00;;;0.90;;
19396;SDS011;9834;48.076;11.878;2022-10-15T00:57:11;0.80;;;0.80;;
19396;SDS011;9834;48.076;11.878;2022-10-15T00:59:40;1.13;;;0.97;;
19396;SDS011;9834;48.076;11.878;2022-10-15T01:02:14;2.33;;;1.20;;
19396;SDS011;9834;48.076;11.878;2022-10-15T01:04:42;0.93;;;0.93;;
19396;SDS011;9834;48.076;11.878;2022-10-15T01:07:10;0.43;;;0.43;;
19396;SDS011;9834;48.076;11.878;2022-10-15T01:09:37;2.53;;;1.40;;
19396;SDS011;9834;48.076;11.878;2022-10-15T01:12:06;0.80;;;0.80;;
19396;SDS011;9834;48.076;11.878;2022-10-15T01:14:43;1.50;;;0.90;;
19396;SDS011;9834;48.076;11.878;2022-10-15T01:17:19;1.80;;;0.93;;
19396;SDS011;9834;48.076;11.878;2022-10-15T01:22:57;1.97;;;1.60;;
19396;SDS011;9834;48.076;11.878;2022-10-15T01:25:41;1.00;;;1.00;;
19396;SDS011;9834;48.076;11.878;2022-10-15T01:28:19;1.30;;;1.20;;
19396;SDS011;9834;48.076;11.878;2022-10-15T01:31:05;0.83;;;0.83;;
19396;SDS011;9834;48.076;11.878;2022-10-15T01:33:41;1.57;;;1.43;;
19396;SDS011;9834;48.076;11.878;2022-10-15T01:36:14;1.80;;;1.63;;
19396;SDS011;9834;48.076;11.878;2022-10-15T01:38:46;1.47;;;1.07;;
19396;SDS011;9834;48.076;11.878;2022-10-15T01:41:19;1.40;;;1.30;;
19396;SDS011;9834;48.076;11.878;2022-10-15T01:43:53;1.57;;;1.40;;
19396;SDS011;9834;48.076;11.878;2022-10-15T01:46:28;1.40;;;1.30;;
19396;SDS011;9834;48.076;11.878;2022-10-15T01:49:00;2.23;;;1.40;;
19396;SDS011;9834;48.076;11.878;2022-10-15T01:51:29;1.23;;;1.13;;
19396;SDS011;9834;48.076;11.878;2022-10-15T01:53:59;1.17;;;1.07;;
19396;SDS011;9834;48.076;11.878;2022-10-15T01:56:29;1.27;;;1.20;;
19396;SDS011;9834;48.076;11.878;2022-10-15T01:58:59;1.27;;;1.17;;
19396;SDS011;9834;48.076;11.878;2022-10-15T02:01:28;1.07;;;0.83;;
19396;SDS011;9834;48.076;11.878;2022-10-15T02:03:55;1.17;;;1.03;;
19396;SDS011;9834;48.076;11.878;2022-10-15T02:06:24;1.83;;;1.00;;
19396;SDS011;9834;48.076;11.878;2022-10-15T02:08:56;1.23;;;0.87;;
19396;SDS011;9834;48.076;11.878;2022-10-15T02:11:34;0.80;;;0.80;;
19396;SDS011;9834;48.076;11.878;2022-10-15T02:14:14;0.97;;;0.93;;
19396;SDS011;9834;48.076;11.878;2022-10-15T02:16:48;0.80;;;0.80;;
19396;SDS011;9834;48.076;11.878;2022-10-15T02:19:25;1.13;;;1.10;;
19396;SDS011;9834;48.076;11.878;2022-10-15T02:21:58;1.73;;;1.13;;
19396;SDS011;9834;48.076;11.878;2022-10-15T02:24:31;0.90;;;0.90;;
19396;SDS011;9834;48.076;11.878;2022-10-15T02:27:01;0.87;;;0.87;;
19396;SDS011;9834;48.076;11.878;2022-10-15T02:29:30;0.77;;;0.77;;
19396;SDS011;9834;48.076;11.878;2022-10-15T02:32:01;1.87;;;1.00;;
19396;SDS011;9834;48.076;11.878;2022-10-15T02:34:30;1.00;;;1.00;;
19396;SDS011;9834;48.076;11.878;2022-10-15T02:37:00;1.30;;;0.90;;
19396;SDS011;9834;48.076;11.878;2022-10-15T02:39:29;4.90;;;0.90;;
19396;SDS011;9834;48.076;11.878;2022-10-15T02:41:56;0.90;;;0.80;;
19396;SDS011;9834;48.076;11.878;2022-10-15T02:44:23;0.93;;;0.87;;
19396;SDS011;9834;48.076;11.878;2022-10-15T02:46:50;1.93;;;1.50;;
19396;SDS011;9834;48.076;11.878;2022-10-15T02:49:18;0.70;;;0.70;;
19396;SDS011;9834;48.076;11.878;2022-10-15T02:51:45;0.93;;;0.90;;
19396;SDS011;9834;48.076;11.878;2022-10-15T02:54:12;1.10;;;1.00;;
19396;SDS011;9834;48.076;11.878;2022-10-15T02:56:39;1.03;;;0.87;;
19396;SDS011;9834;48.076;11.878;2022-10-15T02:59:06;1.27;;;0.67;;
19396;SDS011;9834;48.076;11.878;2022-10-15T03:01:33;0.70;;;0.70;;
19396;SDS011;9834;48.076;11.878;2022-10-15T03:04:00;1.57;;;1.17;;
19396;SDS011;9834;48.076;11.878;2022-10-15T03:06:29;1.27;;;0.90;;
19396;SDS011;9834;48.076;11.878;2022-10-15T03:08:56;0.50;;;0.50;;
19396;SDS011;9834;48.076;11.878;2022-10-15T03:11:23;1.60;;;1.20;;
19396;SDS011;9834;48.076;11.878;2022-10-15T03:13:50;0.63;;;0.63;;
19396;SDS011;9834;48.076;11.878;2022-10-15T03:16:17;1.00;;;0.73;;
19396;SDS011;9834;48.076;11.878;2022-10-15T03:18:44;0.73;;;0.73;;
19396;SDS011;9834;48.076;11.878;2022-10-15T03:21:11;0.53;;;0.53;;
19396;SDS011;9834;48.076;11.878;2022-10-15T03:23:39;2.43;;;1.03;;
19396;SDS011;9834;48.076;11.878;2022-10-15T03:26:06;0.80;;;0.80;;
19396;SDS011;9834;48.076;11.878;2022-10-15T03:28:33;0.60;;;0.60;;
19396;SDS011;9834;48.076;11.878;2022-10-15T03:31:00;1.27;;;0.67;;
19396;SDS011;9834;48.076;11.878;2022-10-15T03:33:27;0.40;;;0.30;;
19396;SDS011;9834;48.076;11.878;2022-10-15T03:35:54;0.40;;;0.40;;
19396;SDS011;9834;48.076;11.878;2022-10-15T03:38:22;0.40;;;0.40;;
19396;SDS011;9834;48.076;11.878;2022-10-15T03:40:50;0.50;;;0.47;;
19396;SDS011;9834;48.076;11.878;2022-10-15T03:43:17;0.40;;;0.40;;
19396;SDS011;9834;48.076;11.878;2022-10-15T03:45:44;0.30;;;0.30;;
19396;SDS011;9834;48.076;11.878;2022-10-15T03:48:13;1.40;;;0.40;;
19396;SDS011;9834;48.076;11.878;2022-10-15T03:50:40;0.40;;;0.40;;
19396;SDS011;9834;48.076;11.878;2022-10-15T03:53:07;0.33;;;0.33;;
19396;SDS011;9834;48.076;11.878;2022-10-15T03:55:34;0.47;;;0.47;;
19396;SDS011;9834;48.076;11.878;2022-10-15T03:58:03;0.40;;;0.40;;
19396;SDS011;9834;48.076;11.878;2022-10-15T04:00:30;0.50;;;0.50;;
19396;SDS011;9834;48.076;11.878;2022-10-15T04:02:57;0.30;;;0.30;;
19396;SDS011;9834;48.076;11.878;2022-10-15T04:05:23;0.40;;;0.40;;
19396;SDS011;9834;48.076;11.878;2022-10-15T04:07:50;0.40;;;0.40;;
19396;SDS011;9834;48.076;11.878;2022-10-15T04:10:17;1.27;;;0.70;;
19396;SDS011;9834;48.076;11.878;2022-10-15T04:12:45;0.50;;;0.50;;
19396;SDS011;9834;48.076;11.878;2022-10-15T04:15:13;0.27;;;0.27;;
19396;SDS011;9834;48.076;11.878;2022-10-15T04:17:40;1.20;;;0.40;;
19396;SDS011;9834;48.076;11.878;2022-10-15T04:20:07;0.30;;;0.30;;
19396;SDS011;9834;48.076;11.878;2022-10-15T04:22:35;0.30;;;0.30;;
19396;SDS011;9834;48.076;11.878;2022-10-15T04:25:03;0.80;;;0.40;;
19396;SDS011;9834;48.076;11.878;2022-10-15T04:27:31;0.77;;;0.50;;
19396;SDS011;9834;48.076;11.878;2022-10-15T04:29:58;0.50;;;0.50;;
19396;SDS011;9834;48.076;11.878;2022-10-15T04:32:27;1.40;;;0.43;;
19396;SDS011;9834;48.076;11.878;2022-10-15T04:34:54;0.67;;;0.50;;
19396;SDS011;9834;48.076;11.878;2022-10-15T04:37:21;0.60;;;0.53;;
19396;SDS011;9834;48.076;11.878;2022-10-15T04:39:48;0.80;;;0.53;;
19396;SDS011;9834;48.076;11.878;2022-10-15T04:42:15;0.30;;;0.30;;
19396;SDS011;9834;48.076;11.878;2022-10-15T04:44:42;0.37;;;0.30;;
19396;SDS011;9834;48.076;11.878;2022-10-15T04:47:09;0.47;;;0.33;;
19396;SDS011;9834;48.076;11.878;2022-10-15T04:49:37;0.60;;;0.60;;
19396;SDS011;9834;48.076;11.878;2022-10-15T04:52:04;0.40;;;0.40;;
19396;SDS011;9834;48.076;11.878;2022-10-15T04:54:31;0.20;;;0.20;;
19396;SDS011;9834;48.076;11.878;2022-10-15T04:56:58;0.63;;;0.30;;
19396;SDS011;9834;48.076;11.878;2022-10-15T04:59:25;0.43;;;0.30;;
19396;SDS011;9834;48.076;11.878;2022-10-15T05:01:52;1.67;;;0.40;;
19396;SDS011;9834;48.076;11.878;2022-10-15T05:04:19;0.33;;;0.33;;
19396;SDS011;9834;48.076;11.878;2022-10-15T05:06:47;0.30;;;0.30;;
19396;SDS011;9834;48.076;11.878;2022-10-15T05:09:15;0.20;;;0.20;;
19396;SDS011;9834;48.076;11.878;2022-10-15T05:11:42;0.30;;;0.30;;
19396;SDS011;9834;48.076;11.878;2022-10-15T05:14:08;0.23;;;0.23;;
19396;SDS011;9834;48.076;11.878;2022-10-15T05:16:36;0.20;;;0.20;;
19396;SDS011;9834;48.076;11.878;2022-10-15T05:19:03;0.47;;;0.37;;
19396;SDS011;9834;48.076;11.878;2022-10-15T05:21:31;0.40;;;0.23;;
19396;SDS011;9834;48.076;11.878;2022-10-15T05:24:01;0.43;;;0.23;;
19396;SDS011;9834;48.076;11.878;2022-10-15T05:26:29;0.20;;;0.20;;
19396;SDS011;9834;48.076;11.878;2022-10-15T05:28:57;1.20;;;0.63;;
19396;SDS011;9834;48.076;11.878;2022-10-15T05:31:25;3.50;;;0.60;;
19396;SDS011;9834;48.076;11.878;2022-10-15T05:33:54;0.33;;;0.33;;
19396;SDS011;9834;48.076;11.878;2022-10-15T05:36:22;0.47;;;0.40;;
19396;SDS011;9834;48.076;11.878;2022-10-15T05:38:51;1.17;;;0.47;;
19396;SDS011;9834;48.076;11.878;2022-10-15T05:41:21;0.37;;;0.37;;
19396;SDS011;9834;48.076;11.878;2022-10-15T05:43:49;0.27;;;0.27;;
19396;SDS011;9834;48.076;11.878;2022-10-15T05:46:17;1.20;;;0.50;;
19396;SDS011;9834;48.076;11.878;2022-10-15T05:48:46;1.13;;;0.67;;
19396;SDS011;9834;48.076;11.878;2022-10-15T05:51:14;0.63;;;0.63;;
19396;SDS011;9834;48.076;11.878;2022-10-15T05:53:41;0.63;;;0.20;;
19396;SDS011;9834;48.076;11.878;2022-10-15T05:56:10;0.30;;;0.30;;
19396;SDS011;9834;48.076;11.878;2022-10-15T05:58:39;0.40;;;0.40;;
19396;SDS011;9834;48.076;11.878;2022-10-15T06:01:07;0.67;;;0.40;;
19396;SDS011;9834;48.076;11.878;2022-10-15T06:03:35;0.40;;;0.40;;
19396;SDS011;9834;48.076;11.878;2022-10-15T06:06:03;0.40;;;0.40;;
19396;SDS011;9834;48.076;11.878;2022-10-15T06:08:30;1.33;;;0.50;;
19396;SDS011;9834;48.076;11.878;2022-10-15T06:11:00;0.30;;;0.30;;
19396;SDS011;9834;48.076;11.878;2022-10-15T06:13:28;0.20;;;0.20;;
19396;SDS011;9834;48.076;11.878;2022-10-15T06:15:56;2.10;;;0.50;;
19396;SDS011;9834;48.076;11.878;2022-10-15T06:18:23;0.33;;;0.30;;
19396;SDS011;9834;48.076;11.878;2022-10-15T06:20:50;0.13;;;0.13;;
19396;SDS011;9834;48.076;11.878;2022-10-15T06:23:18;0.40;;;0.33;;
19396;SDS011;9834;48.076;11.878;2022-10-15T06:25:45;0.20;;;0.20;;
19396;SDS011;9834;48.076;11.878;2022-10-15T06:28:13;0.63;;;0.23;;
19396;SDS011;9834;48.076;11.878;2022-10-15T06:30:40;0.43;;;0.30;;
19396;SDS011;9834;48.076;11.878;2022-10-15T06:33:11;0.20;;;0.20;;
19396;SDS011;9834;48.076;11.878;2022-10-15T06:35:40;0.30;;;0.30;;
19396;SDS011;9834;48.076;11.878;2022-10-15T06:38:10;0.37;;;0.37;;
19396;SDS011;9834;48.076;11.878;2022-10-15T06:40:37;0.30;;;0.30;;
19396;SDS011;9834;48.076;11.878;2022-10-15T06:43:04;0.10;;;0.10;;
19396;SDS011;9834;48.076;11.878;2022-10-15T06:45:32;0.10;;;0.10;;
19396;SDS011;9834;48.076;11.878;2022-10-15T06:48:00;0.30;;;0.30;;
19396;SDS011;9834;48.076;11.878;2022-10-15T06:50:30;0.20;;;0.20;;
19396;SDS011;9834;48.076;11.878;2022-10-15T06:52:57;0.10;;;0.10;;
19396;SDS011;9834;48.076;11.878;2022-10-15T06:55:24;0.20;;;0.20;;
19396;SDS011;9834;48.076;11.878;2022-10-15T06:57:54;0.50;;;0.30;;
19396;SDS011;9834;48.076;11.878;2022-10-15T07:00:21;0.20;;;0.20;;
19396;SDS011;9834;48.076;11.878;2022-10-15T07:02:49;0.20;;;0.20;;
19396;SDS011;9834;48.076;11.878;2022-10-15T07:05:16;0.33;;;0.33;;
19396;SDS011;9834;48.076;11.878;2022-10-15T07:07:51;0.20;;;0.20;;
19396;SDS011;9834;48.076;11.878;2022-10-15T07:10:18;0.30;;;0.30;;
19396;SDS011;9834;48.076;11.878;2022-10-15T07:12:44;1.30;;;1.20;;
19396;SDS011;9834;48.076;11.878;2022-10-15T07:15:12;0.20;;;0.20;;
19396;SDS011;9834;48.076;11.878;2022-10-15T07:17:39;0.27;;;0.27;;
19396;SDS011;9834;48.076;11.878;2022-10-15T07:20:11;0.10;;;0.10;;
19396;SDS011;9834;48.076;11.878;2022-10-15T07:22:38;0.57;;;0.57;;
19396;SDS011;9834;48.076;11.878;2022-10-15T07:25:06;0.30;;;0.30;;
19396;SDS011;9834;48.076;11.878;2022-10-15T07:27:35;0.80;;;0.80;;
19396;SDS011;9834;48.076;11.878;2022-10-15T07:30:02;0.30;;;0.30;;
19396;SDS011;9834;48.076;11.878;2022-10-15T07:32:30;0.87;;;0.30;;
19396;SDS011;9834;48.076;11.878;2022-10-15T07:34:57;0.20;;;0.20;;
19396;SDS011;9834;48.076;11.878;2022-10-15T07:37:24;0.50;;;0.40;;
19396;SDS011;9834;48.076;11.878;2022-10-15T07:39:51;0.10;;;0.10;;
19396;SDS011;9834;48.076;11.878;2022-10-15T07:42:19;0.20;;;0.20;;
19396;SDS011;9834;48.076;11.878;2022-10-15T07:44:46;1.03;;;0.40;;
19396;SDS011;9834;48.076;11.878;2022-10-15T07:47:13;0.47;;;0.40;;
19396;SDS011;9834;48.076;11.878;2022-10-15T07:49:40;0.30;;;0.30;;
19396;SDS011;9834;48.076;11.878;2022-10-15T07:52:07;0.20;;;0.20;;
19396;SDS011;9834;48.076;11.878;2022-10-15T07:54:34;0.20;;;0.20;;
19396;SDS011;9834;48.076;11.878;2022-10-15T07:57:01;0.20;;;0.20;;
19396;SDS011;9834;48.076;11.878;2022-10-15T07:59:32;0.77;;;0.43;;
19396;SDS011;9834;48.076;11.878;2022-10-15T08:01:59;0.10;;;0.10;;
19396;SDS011;9834;48.076;11.878;2022-10-15T08:04:26;0.20;;;0.20;;
19396;SDS011;9834;48.076;11.878;2022-10-15T08:06:53;0.37;;;0.30;;
19396;SDS011;9834;48.076;11.878;2022-10-15T08:09:20;0.10;;;0.10;;
19396;SDS011;9834;48.076;11.878;2022-10-15T08:11:47;0.70;;;0.47;;
19396;SDS011;9834;48.076;11.878;2022-10-15T08:14:14;0.40;;;0.40;;
19396;SDS011;9834;48.076;11.878;2022-10-15T08:16:43;1.97;;;0.40;;
19396;SDS011;9834;48.076;11.878;2022-10-15T08:19:10;0.30;;;0.27;;
19396;SDS011;9834;48.076;11.878;2022-10-15T08:21:37;2.63;;;0.57;;
19396;SDS011;9834;48.076;11.878;2022-10-15T08:24:04;0.40;;;0.40;;
19396;SDS011;9834;48.076;11.878;2022-10-15T08:26:32;0.30;;;0.30;;
19396;SDS011;9834;48.076;11.878;2022-10-15T08:29:02;1.00;;;0.90;;
19396;SDS011;9834;48.076;11.878;2022-10-15T08:31:29;0.30;;;0.30;;
19396;SDS011;9834;48.076;11.878;2022-10-15T08:33:59;0.20;;;0.20;;
19396;SDS011;9834;48.076;11.878;2022-10-15T08:36:26;0.70;;;0.43;;
19396;SDS011;9834;48.076;11.878;2022-10-15T08:38:53;0.30;;;0.30;;
19396;SDS011;9834;48.076;11.878;2022-10-15T08:41:22;0.20;;;0.20;;
19396;SDS011;9834;48.076;11.878;2022-10-15T08:43:53;0.30;;;0.30;;
19396;SDS011;9834;48.076;11.878;2022-10-15T08:46:21;0.20;;;0.20;;
19396;SDS011;9834;48.076;11.878;2022-10-15T08:48:55;0.20;;;0.20;;
19396;SDS011;9834;48.076;11.878;2022-10-15T08:51:26;0.30;;;0.30;;
19396;SDS011;9834;48.076;11.878;2022-10-15T08:54:00;0.40;;;0.40;;
19396;SDS011;9834;48.076;11.878;2022-10-15T08:56:29;0.30;;;0.30;;
19396;SDS011;9834;48.076;11.878;2022-10-15T08:59:02;0.20;;;0.20;;
19396;SDS011;9834;48.076;11.878;2022-10-15T09:01:39;0.73;;;0.73;;
19396;SDS011;9834;48.076;11.878;2022-10-15T09:04:15;0.83;;;0.50;;
19396;SDS011;9834;48.076;11.878;2022-10-15T09:06:47;1.10;;;1.03;;
19396;SDS011;9834;48.076;11.878;2022-10-15T09:09:22;1.40;;;1.30;;
19396;SDS011;9834;48.076;11.878;2022-10-15T09:11:56;2.20;;;1.97;;
19396;SDS011;9834;48.076;11.878;2022-10-15T09:14:32;3.33;;;2.50;;
19396;SDS011;9834;48.076;11.878;2022-10-15T09:17:03;1.27;;;1.17;;
19396;SDS011;9834;48.076;11.878;2022-10-15T09:19:34;3.50;;;3.30;;
19396;SDS011;9834;48.076;11.878;2022-10-15T09:22:02;1.10;;;1.00;;
19396;SDS011;9834;48.076;11.878;2022-10-15T09:24:30;1.03;;;1.03;;
19396;SDS011;9834;48.076;11.878;2022-10-15T09:27:01;0.60;;;0.60;;
19396;SDS011;9834;48.076;11.878;2022-10-15T09:29:36;0.50;;;0.50;;
19396;SDS011;9834;48.076;11.878;2022-10-15T09:32:12;0.60;;;0.30;;
19396;SDS011;9834;48.076;11.878;2022-10-15T09:34:47;0.73;;;0.73;;
19396;SDS011;9834;48.076;11.878;2022-10-15T09:37:23;1.00;;;1.00;;
19396;SDS011;9834;48.076;11.878;2022-10-15T09:40:01;1.97;;;1.77;;
19396;SDS011;9834;48.076;11.878;2022-10-15T09:42:43;0.67;;;0.53;;
19396;SDS011;9834;48.076;11.878;2022-10-15T09:45:14;0.30;;;0.30;;
19396;SDS011;9834;48.076;11.878;2022-10-15T09:47:42;0.80;;;0.80;;
19396;SDS011;9834;48.076;11.878;2022-10-15T09:50:13;0.87;;;0.87;;
19396;SDS011;9834;48.076;11.878;2022-10-15T09:52:45;0.90;;;0.90;;
19396;SDS011;9834;48.076;11.878;2022-10-15T09:55:32;1.00;;;1.00;;
19396;SDS011;9834;48.076;11.878;2022-10-15T09:58:05;0.90;;;0.90;;
19396;SDS011;9834;48.076;11.878;2022-10-15T10:00:51;0.40;;;0.40;;
19396;SDS011;9834;48.076;11.878;2022-10-15T10:03:21;0.77;;;0.40;;
19396;SDS011;9834;48.076;11.878;2022-10-15T10:05:51;0.40;;;0.40;;
19396;SDS011;9834;48.076;11.878;2022-10-15T10:08:25;0.73;;;0.73;;
19396;SDS011;9834;48.076;11.878;2022-10-15T10:10:56;0.63;;;0.57;;
19396;SDS011;9834;48.076;11.878;2022-10-15T10:13:26;1.00;;;1.00;;
19396;SDS011;9834;48.076;11.878;2022-10-15T10:16:00;1.67;;;1.57;;
19396;SDS011;9834;48.076;11.878;2022-10-15T10:18:30;1.20;;;1.10;;
19396;SDS011;9834;48.076;11.878;2022-10-15T10:20:59;0.23;;;0.23;;
19396;SDS011;9834;48.076;11.878;2022-10-15T10:23:31;1.07;;;0.90;;
19396;SDS011;9834;48.076;11.878;2022-10-15T10:26:01;2.63;;;0.70;;
19396;SDS011;9834;48.076;11.878;2022-10-15T10:28:31;0.40;;;0.40;;
19396;SDS011;9834;48.076;11.878;2022-10-15T10:31:04;0.30;;;0.30;;
19396;SDS011;9834;48.076;11.878;2022-10-15T10:33:36;1.43;;;1.07;;
19396;SDS011;9834;48.076;11.878;2022-10-15T10:36:19;0.50;;;0.50;;
19396;SDS011;9834;48.076;11.878;2022-10-15T10:38:57;0.30;;;0.30;;
19396;SDS011;9834;48.076;11.878;2022-10-15T10:44:17;1.13;;;0.70;;
19396;SDS011;9834;48.076;11.878;2022-10-15T10:46:57;3.40;;;0.70;;
19396;SDS011;9834;48.076;11.878;2022-10-15T10:49:30;0.57;;;0.57;;
19396;SDS011;9834;48.076;11.878;2022-10-15T10:52:00;0.50;;;0.50;;
19396;SDS011;9834;48.076;11.878;2022-10-15T10:54:28;0.30;;;0.30;;
19396;SDS011;9834;48.076;11.878;2022-10-15T10:56:57;0.43;;;0.43;;
19396;SDS011;9834;48.076;11.878;2022-10-15T10:59:26;0.77;;;0.50;;
19396;SDS011;9834;48.076;11.878;2022-10-15T11:01:56;0.37;;;0.37;;
19396;SDS011;9834;48.076;11.878;2022-10-15T11:04:24;0.60;;;0.40;;
19396;SDS011;9834;48.076;11.878;2022-10-15T11:06:57;0.90;;;0.35;;
19396;SDS011;9834;48.076;11.878;2022-10-15T11:09:36;0.40;;;0.40;;
19396;SDS011;9834;48.076;11.878;2022-10-15T11:12:13;0.30;;;0.30;;
19396;SDS011;9834;48.076;11.878;2022-10-15T11:14:56;0.30;;;0.30;;
19396;SDS011;9834;48.076;11.878;2022-10-15T11:17:35;0.25;;;0.25;;
19396;SDS011;9834;48.076;11.878;2022-10-15T11:20:13;0.20;;;0.20;;
19396;SDS011;9834;48.076;11.878;2022-10-15T11:22:50;0.35;;;0.32;;
19396;SDS011;9834;48.076;11.878;2022-10-15T11:25:30;0.43;;;0.43;;
19396;SDS011;9834;48.076;11.878;2022-10-15T11:28:05;0.30;;;0.30;;
19396;SDS011;9834;48.076;11.878;2022-10-15T11:30:46;0.52;;;0.52;;
19396;SDS011;9834;48.076;11.878;2022-10-15T11:36:21;0.57;;;0.30;;
19396;SDS011;9834;48.076;11.878;2022-10-15T11:38:59;0.22;;;0.22;;
19396;SDS011;9834;48.076;11.878;2022-10-15T11:41:38;0.30;;;0.30;;
19396;SDS011;9834;48.076;11.878;2022-10-15T11:44:19;1.25;;;0.28;;
19396;SDS011;9834;48.076;11.878;2022-10-15T11:46:53;1.08;;;0.40;;
19396;SDS011;9834;48.076;11.878;2022-10-15T11:49:33;0.65;;;0.50;;
19396;SDS011;9834;48.076;11.878;2022-10-15T11:55:01;0.43;;;0.43;;
19396;SDS011;9834;48.076;11.878;2022-10-15T11:57:34;0.38;;;0.38;;
19396;SDS011;9834;48.076;11.878;2022-10-15T12:00:05;0.20;;;0.20;;
19396;SDS011;9834;48.076;11.878;2022-10-15T12:02:38;0.20;;;0.20;;
19396;SDS011;9834;48.076;11.878;2022-10-15T12:05:06;0.50;;;0.50;;
19396;SDS011;9834;48.076;11.878;2022-10-15T12:07:37;0.40;;;0.40;;
19396;SDS011;9834;48.076;11.878;2022-10-15T12:10:13;0.60;;;0.60;;
19396;SDS011;9834;48.076;11.878;2022-10-15T12:12:53;0.30;;;0.30;;
19396;SDS011;9834;48.076;11.878;2022-10-15T12:15:26;0.20;;;0.20;;
19396;SDS011;9834;48.076;11.878;2022-10-15T12:18:01;0.43;;;0.43;;
19396;SDS011;9834;48.076;11.878;2022-10-15T12:20:39;0.13;;;0.13;;
19396;SDS011;9834;48.076;11.878;2022-10-15T12:23:20;1.08;;;0.43;;
19396;SDS011;9834;48.076;11.878;2022-10-15T12:25:50;0.38;;;0.38;;
19396;SDS011;9834;48.076;11.878;2022-10-15T12:28:18;1.08;;;0.40;;
19396;SDS011;9834;48.076;11.878;2022-10-15T12:33:36;0.30;;;0.30;;
19396;SDS011;9834;48.076;11.878;2022-10-15T12:36:19;0.52;;;0.30;;
19396;SDS011;9834;48.076;11.878;2022-10-15T12:38:54;0.20;;;0.20;;
19396;SDS011;9834;48.076;11.878;2022-10-15T12:41:32;0.30;;;0.30;;
19396;SDS011;9834;48.076;11.878;2022-10-15T12:44:05;1.95;;;0.57;;
19396;SDS011;9834;48.076;11.878;2022-10-15T12:46:37;0.30;;;0.30;;
19396;SDS011;9834;48.076;11.878;2022-10-15T12:55:18;0.28;;;0.28;;
19396;SDS011;9834;48.076;11.878;2022-10-15T12:57:57;0.25;;;0.25;;
19396;SDS011;9834;48.076;11.878;2022-10-15T13:00:32;0.10;;;0.10;;
19396;SDS011;9834;48.076;11.878;2022-10-15T13:09:04;0.25;;;0.25;;
19396;SDS011;9834;48.076;11.878;2022-10-15T13:11:46;0.30;;;0.30;;
19396;SDS011;9834;48.076;11.878;2022-10-15T13:14:19;0.30;;;0.30;;
19396;SDS011;9834;48.076;11.878;2022-10-15T13:17:04;0.45;;;0.45;;
19396;SDS011;9834;48.076;11.878;2022-10-15T13:19:44;0.40;;;0.40;;
19396;SDS011;9834;48.076;11.878;2022-10-15T13:22:19;0.28;;;0.28;;
19396;SDS011;9834;48.076;11.878;2022-10-15T13:24:48;0.20;;;0.20;;
19396;SDS011;9834;48.076;11.878;2022-10-15T13:27:20;2.53;;;0.70;;
19396;SDS011;9834;48.076;11.878;2022-10-15T13:29:54;0.30;;;0.25;;
19396;SDS011;9834;48.076;11.878;2022-10-15T13:32:22;0.20;;;0.20;;
19396;SDS011;9834;48.076;11.878;2022-10-15T13:34:51;1.38;;;0.35;;
19396;SDS011;9834;48.076;11.878;2022-10-15T13:37:22;3.00;;;0.30;;
19396;SDS011;9834;48.076;11.878;2022-10-15T13:39:57;0.30;;;0.30;;
19396;SDS011;9834;48.076;11.878;2022-10-15T13:42:25;0.40;;;0.30;;
19396;SDS011;9834;48.076;11.878;2022-10-15T13:44:57;0.45;;;0.43;;
19396;SDS011;9834;48.076;11.878;2022-10-15T13:47:27;0.25;;;0.25;;
19396;SDS011;9834;48.076;11.878;2022-10-15T13:50:12;0.30;;;0.30;;
19396;SDS011;9834;48.076;11.878;2022-10-15T13:52:43;0.30;;;0.30;;
19396;SDS011;9834;48.076;11.878;2022-10-15T13:55:18;0.20;;;0.20;;
19396;SDS011;9834;48.076;11.878;2022-10-15T13:57:47;0.20;;;0.20;;
19396;SDS011;9834;48.076;11.878;2022-10-15T14:00:22;0.30;;;0.30;;
19396;SDS011;9834;48.076;11.878;2022-10-15T14:05:46;0.15;;;0.15;;
19396;SDS011;9834;48.076;11.878;2022-10-15T14:08:24;0.32;;;0.20;;
19396;SDS011;9834;48.076;11.878;2022-10-15T14:10:54;0.90;;;0.20;;
19396;SDS011;9834;48.076;11.878;2022-10-15T14:13:23;0.13;;;0.13;;
19396;SDS011;9834;48.076;11.878;2022-10-15T14:15:58;0.47;;;0.47;;
19396;SDS011;9834;48.076;11.878;2022-10-15T14:18:31;0.38;;;0.38;;
19396;SDS011;9834;48.076;11.878;2022-10-15T14:21:01;0.20;;;0.20;;
19396;SDS011;9834;48.076;11.878;2022-10-15T14:23:29;0.65;;;0.20;;
19396;SDS011;9834;48.076;11.878;2022-10-15T14:25:58;0.25;;;0.25;;
19396;SDS011;9834;48.076;11.878;2022-10-15T14:28:28;0.20;;;0.20;;
19396;SDS011;9834;48.076;11.878;2022-10-15T14:31:01;0.30;;;0.13;;
19396;SDS011;9834;48.076;11.878;2022-10-15T14:33:33;0.30;;;0.30;;
19396;SDS011;9834;48.076;11.878;2022-10-15T14:36:08;0.38;;;0.38;;
19396;SDS011;9834;48.076;11.878;2022-10-15T14:38:38;1.17;;;0.32;;
19396;SDS011;9834;48.076;11.878;2022-10-15T14:41:17;0.30;;;0.30;;
19396;SDS011;9834;48.076;11.878;2022-10-15T14:44:02;0.57;;;0.32;;
19396;SDS011;9834;48.076;11.878;2022-10-15T14:46:40;0.50;;;0.40;;
19396;SDS011;9834;48.076;11.878;2022-10-15T14:51:56;0.47;;;0.38;;
19396;SDS011;9834;48.076;11.878;2022-10-15T14:54:29;0.25;;;0.25;;
19396;SDS011;9834;48.076;11.878;2022-10-15T14:57:00;0.40;;;0.40;;
19396;SDS011;9834;48.076;11.878;2022-10-15T14:59:29;0.43;;;0.43;;
19396;SDS011;9834;48.076;11.878;2022-10-15T15:02:00;0.30;;;0.30;;
19396;SDS011;9834;48.076;11.878;2022-10-15T15:07:18;0.32;;;0.32;;
19396;SDS011;9834;48.076;11.878;2022-10-15T15:09:47;0.68;;;0.68;;
19396;SDS011;9834;48.076;11.878;2022-10-15T15:12:20;0.65;;;0.50;;
19396;SDS011;9834;48.076;11.878;2022-10-15T15:14:48;3.65;;;0.43;;
19396;SDS011;9834;48.076;11.878;2022-10-15T15:17:19;0.30;;;0.30;;
19396;SDS011;9834;48.076;11.878;2022-10-15T15:19:48;0.30;;;0.30;;
19396;SDS011;9834;48.076;11.878;2022-10-15T15:22:17;0.80;;;0.52;;
19396;SDS011;9834;48.076;11.878;2022-10-15T15:24:50;1.13;;;0.60;;
19396;SDS011;9834;48.076;11.878;2022-10-15T15:27:20;0.43;;;0.40;;
19396;SDS011;9834;48.076;11.878;2022-10-15T15:29:49;2.75;;;1.40;;
19396;SDS011;9834;48.076;11.878;2022-10-15T15:32:18;1.00;;;1.00;;
19396;SDS011;9834;48.076;11.878;2022-10-15T15:34:46;0.60;;;0.60;;
19396;SDS011;9834;48.076;11.878;2022-10-15T15:37:15;0.70;;;0.70;;
19396;SDS011;9834;48.076;11.878;2022-10-15T15:39:43;0.90;;;0.50;;
19396;SDS011;9834;48.076;11.878;2022-10-15T15:42:11;0.60;;;0.60;;
19396;SDS011;9834;48.076;11.878;2022-10-15T15:44:41;0.57;;;0.57;;
19396;SDS011;9834;48.076;11.878;2022-10-15T15:47:08;0.60;;;0.60;;